sensor_id;sensor_type;location;lat;lon;timestamp;P1;durP1;ratioP1;P2;durP2;ratioP2
444;SDS011;209;48.774;9.238;2022-08-18T00:02:12;2.80;;;2.10;;
444;SDS011;209;48.774;9.238;2022-08-18T00:05:01;2.70;;;2.53;;
444;SDS011;209;48.774;9.238;2022-08-18T00:11:24;2.90;;;2.40;;
444;SDS011;209;48.774;9.238;2022-08-18T00:14:12;2.80;;;1.73;;
444;SDS011;209;48.774;9.238;2022-08-18T00:17:16;3.87;;;3.00;;
444;SDS011;209;48.774;9.238;2022-08-18T00:20:22;1.93;;;1.77;;
444;SDS011;209;48.774;9.238;2022-08-18T00:23:10;1.83;;;1.17;;
444;SDS011;209;48.774;9.238;2022-08-18T00:25:58;3.90;;;2.83;;
444;SDS011;209;48.774;9.238;2022-08-18T00:29:02;2.30;;;2.03;;
444;SDS011;209;48.774;9.238;2022-08-18T00:35:23;1.90;;;1.70;;
444;SDS011;209;48.774;9.238;2022-08-18T00:38:30;3.60;;;2.30;;
444;SDS011;209;48.774;9.238;2022-08-18T00:41:18;2.97;;;2.70;;
444;SDS011;209;48.774;9.238;2022-08-18T00:44:22;2.33;;;2.13;;
444;SDS011;209;48.774;9.238;2022-08-18T01:21:19;2.57;;;1.60;;
444;SDS011;209;48.774;9.238;2022-08-18T01:24:43;2.70;;;2.30;;
444;SDS011;209;48.774;9.238;2022-08-18T01:28:31;3.13;;;2.13;;
444;SDS011;209;48.774;9.238;2022-08-18T01:35:14;3.00;;;2.10;;
444;SDS011;209;48.774;9.238;2022-08-18T01:41:08;2.73;;;2.30;;
444;SDS011;209;48.774;9.238;2022-08-18T01:50:09;3.20;;;2.23;;
444;SDS011;209;48.774;9.238;2022-08-18T01:52:56;2.00;;;1.63;;
444;SDS011;209;48.774;9.238;2022-08-18T01:55:44;2.40;;;2.00;;
444;SDS011;209;48.774;9.238;2022-08-18T01:58:41;1.80;;;1.50;;
444;SDS011;209;48.774;9.238;2022-08-18T06:04:53;4.17;;;2.87;;
444;SDS011;209;48.774;9.238;2022-08-18T06:10:33;4.40;;;3.90;;
444;SDS011;209;48.774;9.238;2022-08-18T06:23:55;4.43;;;4.03;;
444;SDS011;209;48.774;9.238;2022-08-18T06:26:46;4.00;;;3.43;;
444;SDS011;209;48.774;9.238;2022-08-18T08:01:11;3.50;;;2.80;;
444;SDS011;209;48.774;9.238;2022-08-18T08:17:33;4.40;;;3.60;;
444;SDS011;209;48.774;9.238;2022-08-18T08:20:25;3.93;;;3.40;;
444;SDS011;209;48.774;9.238;2022-08-18T08:23:16;3.53;;;2.97;;
444;SDS011;209;48.774;9.238;2022-08-18T09:27:47;2.23;;;1.80;;
444;SDS011;209;48.774;9.238;2022-08-18T10:03:02;2.97;;;2.73;;
444;SDS011;209;48.774;9.238;2022-08-18T10:29:52;6.03;;;3.40;;
444;SDS011;209;48.774;9.238;2022-08-18T10:45:54;4.07;;;2.67;;
444;SDS011;209;48.774;9.238;2022-08-18T11:55:34;4.17;;;3.20;;
444;SDS011;209;48.774;9.238;2022-08-18T12:27:44;3.40;;;2.97;;
444;SDS011;209;48.774;9.238;2022-08-18T12:30:32;7.07;;;4.00;;
444;SDS011;209;48.774;9.238;2022-08-18T12:33:20;3.57;;;2.57;;
444;SDS011;209;48.774;9.238;2022-08-18T12:36:08;3.70;;;3.27;;
444;SDS011;209;48.774;9.238;2022-08-18T12:38:58;2.87;;;2.50;;
444;SDS011;209;48.774;9.238;2022-08-18T12:41:46;3.60;;;2.20;;
444;SDS011;209;48.774;9.238;2022-08-18T12:44:38;2.23;;;1.77;;
444;SDS011;209;48.774;9.238;2022-08-18T12:47:26;3.43;;;3.13;;
444;SDS011;209;48.774;9.238;2022-08-18T12:50:14;2.90;;;2.67;;
444;SDS011;209;48.774;9.238;2022-08-18T12:53:02;4.00;;;3.10;;
444;SDS011;209;48.774;9.238;2022-08-18T12:55:50;3.97;;;3.30;;
444;SDS011;209;48.774;9.238;2022-08-18T12:58:38;3.30;;;2.83;;
444;SDS011;209;48.774;9.238;2022-08-18T13:01:34;3.13;;;2.40;;
444;SDS011;209;48.774;9.238;2022-08-18T13:04:22;3.50;;;2.47;;
444;SDS011;209;48.774;9.238;2022-08-18T13:07:12;2.70;;;2.43;;
444;SDS011;209;48.774;9.238;2022-08-18T13:10:00;3.00;;;2.80;;
444;SDS011;209;48.774;9.238;2022-08-18T13:12:49;4.27;;;3.90;;
444;SDS011;209;48.774;9.238;2022-08-18T13:15:40;5.30;;;3.70;;
444;SDS011;209;48.774;9.238;2022-08-18T13:18:30;4.63;;;3.87;;
444;SDS011;209;48.774;9.238;2022-08-18T13:21:22;4.40;;;3.60;;
444;SDS011;209;48.774;9.238;2022-08-18T13:24:11;3.80;;;2.60;;
444;SDS011;209;48.774;9.238;2022-08-18T13:27:02;3.50;;;2.87;;
444;SDS011;209;48.774;9.238;2022-08-18T13:29:50;5.53;;;2.90;;
444;SDS011;209;48.774;9.238;2022-08-18T13:32:49;3.43;;;2.70;;
444;SDS011;209;48.774;9.238;2022-08-18T13:35:38;3.00;;;2.83;;
444;SDS011;209;48.774;9.238;2022-08-18T13:38:32;3.50;;;3.10;;
444;SDS011;209;48.774;9.238;2022-08-18T13:41:27;4.23;;;3.80;;
444;SDS011;209;48.774;9.238;2022-08-18T13:44:22;2.03;;;1.90;;
444;SDS011;209;48.774;9.238;2022-08-18T13:47:15;3.70;;;2.50;;
444;SDS011;209;48.774;9.238;2022-08-18T13:50:05;4.53;;;2.90;;
444;SDS011;209;48.774;9.238;2022-08-18T13:52:57;3.60;;;3.07;;
444;SDS011;209;48.774;9.238;2022-08-18T13:55:52;2.50;;;2.33;;
444;SDS011;209;48.774;9.238;2022-08-18T13:58:47;3.20;;;2.67;;
444;SDS011;209;48.774;9.238;2022-08-18T14:01:40;3.00;;;2.60;;
444;SDS011;209;48.774;9.238;2022-08-18T14:04:32;3.90;;;2.27;;
444;SDS011;209;48.774;9.238;2022-08-18T14:07:40;2.53;;;2.20;;
444;SDS011;209;48.774;9.238;2022-08-18T14:10:33;3.70;;;2.80;;
444;SDS011;209;48.774;9.238;2022-08-18T14:13:30;4.23;;;3.30;;
444;SDS011;209;48.774;9.238;2022-08-18T14:16:19;3.97;;;2.60;;
444;SDS011;209;48.774;9.238;2022-08-18T14:19:18;5.17;;;3.67;;
444;SDS011;209;48.774;9.238;2022-08-18T14:22:34;2.83;;;2.67;;
444;SDS011;209;48.774;9.238;2022-08-18T14:25:41;3.17;;;3.00;;
444;SDS011;209;48.774;9.238;2022-08-18T14:28:47;2.10;;;1.93;;
444;SDS011;209;48.774;9.238;2022-08-18T14:31:37;2.37;;;2.17;;
444;SDS011;209;48.774;9.238;2022-08-18T14:34:25;4.47;;;3.40;;
444;SDS011;209;48.774;9.238;2022-08-18T14:37:14;3.93;;;3.17;;
444;SDS011;209;48.774;9.238;2022-08-18T14:40:11;5.07;;;3.30;;
444;SDS011;209;48.774;9.238;2022-08-18T14:43:21;3.20;;;2.60;;
444;SDS011;209;48.774;9.238;2022-08-18T14:46:09;3.50;;;2.63;;
444;SDS011;209;48.774;9.238;2022-08-18T14:49:00;2.67;;;2.47;;
444;SDS011;209;48.774;9.238;2022-08-18T15:13:38;3.17;;;2.10;;
444;SDS011;209;48.774;9.238;2022-08-18T15:16:26;4.50;;;3.10;;
444;SDS011;209;48.774;9.238;2022-08-18T15:19:18;3.07;;;1.93;;
444;SDS011;209;48.774;9.238;2022-08-18T15:22:07;4.10;;;3.00;;
444;SDS011;209;48.774;9.238;2022-08-18T15:25:12;3.03;;;2.37;;
444;SDS011;209;48.774;9.238;2022-08-18T15:28:18;3.50;;;2.60;;
444;SDS011;209;48.774;9.238;2022-08-18T15:31:07;2.90;;;2.40;;
444;SDS011;209;48.774;9.238;2022-08-18T15:33:54;3.63;;;2.97;;
444;SDS011;209;48.774;9.238;2022-08-18T15:36:42;3.23;;;2.90;;
444;SDS011;209;48.774;9.238;2022-08-18T15:39:31;3.00;;;2.47;;
444;SDS011;209;48.774;9.238;2022-08-18T15:42:18;3.30;;;2.80;;
444;SDS011;209;48.774;9.238;2022-08-18T15:45:07;2.90;;;2.20;;
444;SDS011;209;48.774;9.238;2022-08-18T15:47:56;2.30;;;1.90;;
444;SDS011;209;48.774;9.238;2022-08-18T15:50:44;2.00;;;1.80;;
444;SDS011;209;48.774;9.238;2022-08-18T15:53:33;2.60;;;2.40;;
444;SDS011;209;48.774;9.238;2022-08-18T15:56:21;3.73;;;2.40;;
444;SDS011;209;48.774;9.238;2022-08-18T15:59:09;5.10;;;2.80;;
444;SDS011;209;48.774;9.238;2022-08-18T16:01:57;4.43;;;3.17;;
444;SDS011;209;48.774;9.238;2022-08-18T16:04:46;3.70;;;3.20;;
444;SDS011;209;48.774;9.238;2022-08-18T16:07:37;6.70;;;2.90;;
444;SDS011;209;48.774;9.238;2022-08-18T16:10:33;4.47;;;3.10;;
444;SDS011;209;48.774;9.238;2022-08-18T16:13:21;3.10;;;2.20;;
444;SDS011;209;48.774;9.238;2022-08-18T16:16:11;3.90;;;2.17;;
444;SDS011;209;48.774;9.238;2022-08-18T16:18:59;3.27;;;2.50;;
444;SDS011;209;48.774;9.238;2022-08-18T16:21:49;3.30;;;2.87;;
444;SDS011;209;48.774;9.238;2022-08-18T16:24:41;2.87;;;2.73;;
444;SDS011;209;48.774;9.238;2022-08-18T16:27:28;3.00;;;2.47;;
444;SDS011;209;48.774;9.238;2022-08-18T16:30:19;4.03;;;3.50;;
444;SDS011;209;48.774;9.238;2022-08-18T16:33:07;3.43;;;2.43;;
444;SDS011;209;48.774;9.238;2022-08-18T16:35:55;4.80;;;3.90;;
444;SDS011;209;48.774;9.238;2022-08-18T16:38:45;1.97;;;1.73;;
444;SDS011;209;48.774;9.238;2022-08-18T16:41:32;2.70;;;2.57;;
444;SDS011;209;48.774;9.238;2022-08-18T16:44:20;2.47;;;2.27;;
444;SDS011;209;48.774;9.238;2022-08-18T16:47:09;4.27;;;2.60;;
444;SDS011;209;48.774;9.238;2022-08-18T16:49:57;3.50;;;2.87;;
444;SDS011;209;48.774;9.238;2022-08-18T16:52:45;2.93;;;2.67;;
444;SDS011;209;48.774;9.238;2022-08-18T16:55:34;3.13;;;2.33;;
444;SDS011;209;48.774;9.238;2022-08-18T16:58:22;3.20;;;2.37;;
444;SDS011;209;48.774;9.238;2022-08-18T17:01:28;2.90;;;2.30;;
444;SDS011;209;48.774;9.238;2022-08-18T17:04:35;4.10;;;2.93;;
444;SDS011;209;48.774;9.238;2022-08-18T17:07:32;3.00;;;2.87;;
444;SDS011;209;48.774;9.238;2022-08-18T17:10:20;3.80;;;2.67;;
444;SDS011;209;48.774;9.238;2022-08-18T17:13:15;3.77;;;2.50;;
444;SDS011;209;48.774;9.238;2022-08-18T17:16:09;6.10;;;3.13;;
444;SDS011;209;48.774;9.238;2022-08-18T17:18:57;3.47;;;2.67;;
444;SDS011;209;48.774;9.238;2022-08-18T17:21:46;2.40;;;2.13;;
444;SDS011;209;48.774;9.238;2022-08-18T17:24:34;3.00;;;2.50;;
444;SDS011;209;48.774;9.238;2022-08-18T17:27:25;3.70;;;3.10;;
444;SDS011;209;48.774;9.238;2022-08-18T17:30:18;3.83;;;3.60;;
444;SDS011;209;48.774;9.238;2022-08-18T17:33:09;3.90;;;3.03;;
444;SDS011;209;48.774;9.238;2022-08-18T17:35:58;3.53;;;2.80;;
444;SDS011;209;48.774;9.238;2022-08-18T17:38:53;3.70;;;2.97;;
444;SDS011;209;48.774;9.238;2022-08-18T17:41:42;5.37;;;3.17;;
444;SDS011;209;48.774;9.238;2022-08-18T17:44:48;3.63;;;2.83;;
444;SDS011;209;48.774;9.238;2022-08-18T17:47:41;4.00;;;3.37;;
444;SDS011;209;48.774;9.238;2022-08-18T17:50:33;3.20;;;2.70;;
444;SDS011;209;48.774;9.238;2022-08-18T17:53:48;3.17;;;2.77;;
444;SDS011;209;48.774;9.238;2022-08-18T17:56:41;3.57;;;3.40;;
444;SDS011;209;48.774;9.238;2022-08-18T17:59:30;3.30;;;2.63;;
444;SDS011;209;48.774;9.238;2022-08-18T18:02:20;3.67;;;3.47;;
444;SDS011;209;48.774;9.238;2022-08-18T18:05:18;4.83;;;4.50;;
444;SDS011;209;48.774;9.238;2022-08-18T18:08:06;5.10;;;3.90;;
444;SDS011;209;48.774;9.238;2022-08-18T18:10:55;3.20;;;2.90;;
444;SDS011;209;48.774;9.238;2022-08-18T18:13:56;5.13;;;3.70;;
444;SDS011;209;48.774;9.238;2022-08-18T18:16:44;5.10;;;4.20;;
444;SDS011;209;48.774;9.238;2022-08-18T18:19:47;3.93;;;3.43;;
444;SDS011;209;48.774;9.238;2022-08-18T18:22:37;3.43;;;2.63;;
444;SDS011;209;48.774;9.238;2022-08-18T18:25:29;6.10;;;3.60;;
444;SDS011;209;48.774;9.238;2022-08-18T18:28:28;3.60;;;3.20;;
444;SDS011;209;48.774;9.238;2022-08-18T18:31:17;5.83;;;3.57;;
444;SDS011;209;48.774;9.238;2022-08-18T18:34:06;4.27;;;3.83;;
444;SDS011;209;48.774;9.238;2022-08-18T18:37:02;4.33;;;2.73;;
444;SDS011;209;48.774;9.238;2022-08-18T18:39:55;5.70;;;4.40;;
444;SDS011;209;48.774;9.238;2022-08-18T18:42:43;3.87;;;2.97;;
444;SDS011;209;48.774;9.238;2022-08-18T18:45:30;4.47;;;3.37;;
444;SDS011;209;48.774;9.238;2022-08-18T18:48:18;8.83;;;5.83;;
444;SDS011;209;48.774;9.238;2022-08-18T18:51:09;4.20;;;3.73;;
444;SDS011;209;48.774;9.238;2022-08-18T18:54:01;4.47;;;3.53;;
444;SDS011;209;48.774;9.238;2022-08-18T18:56:53;4.20;;;3.87;;
444;SDS011;209;48.774;9.238;2022-08-18T18:59:47;5.70;;;4.40;;
444;SDS011;209;48.774;9.238;2022-08-18T19:02:39;4.87;;;3.53;;
444;SDS011;209;48.774;9.238;2022-08-18T19:05:30;5.20;;;4.50;;
444;SDS011;209;48.774;9.238;2022-08-18T19:08:23;3.70;;;3.53;;
444;SDS011;209;48.774;9.238;2022-08-18T19:11:16;5.03;;;4.17;;
444;SDS011;209;48.774;9.238;2022-08-18T19:14:12;4.70;;;4.30;;
444;SDS011;209;48.774;9.238;2022-08-18T19:17:03;4.97;;;4.67;;
444;SDS011;209;48.774;9.238;2022-08-18T19:19:56;9.53;;;6.07;;
444;SDS011;209;48.774;9.238;2022-08-18T19:22:47;5.13;;;4.83;;
444;SDS011;209;48.774;9.238;2022-08-18T19:25:39;4.97;;;4.57;;
444;SDS011;209;48.774;9.238;2022-08-18T19:28:33;6.37;;;5.33;;
444;SDS011;209;48.774;9.238;2022-08-18T19:31:25;6.73;;;5.33;;
444;SDS011;209;48.774;9.238;2022-08-18T19:34:14;5.07;;;4.47;;
444;SDS011;209;48.774;9.238;2022-08-18T19:37:04;6.27;;;5.07;;
444;SDS011;209;48.774;9.238;2022-08-18T19:39:54;7.40;;;5.57;;
444;SDS011;209;48.774;9.238;2022-08-18T19:42:50;6.40;;;4.87;;
444;SDS011;209;48.774;9.238;2022-08-18T19:45:41;4.63;;;3.73;;
444;SDS011;209;48.774;9.238;2022-08-18T19:48:35;5.90;;;4.00;;
444;SDS011;209;48.774;9.238;2022-08-18T19:51:26;5.63;;;5.33;;
444;SDS011;209;48.774;9.238;2022-08-18T19:54:21;4.80;;;3.83;;
444;SDS011;209;48.774;9.238;2022-08-18T19:57:33;6.73;;;4.63;;
444;SDS011;209;48.774;9.238;2022-08-18T20:00:26;5.27;;;4.33;;
444;SDS011;209;48.774;9.238;2022-08-18T20:06:39;4.23;;;3.97;;
444;SDS011;209;48.774;9.238;2022-08-18T20:09:37;4.47;;;3.63;;
444;SDS011;209;48.774;9.238;2022-08-18T20:12:40;3.90;;;3.73;;
444;SDS011;209;48.774;9.238;2022-08-18T20:15:30;4.20;;;3.83;;
444;SDS011;209;48.774;9.238;2022-08-18T20:18:19;4.33;;;3.80;;
444;SDS011;209;48.774;9.238;2022-08-18T20:21:29;7.47;;;3.90;;
444;SDS011;209;48.774;9.238;2022-08-18T20:27:33;7.67;;;5.30;;
444;SDS011;209;48.774;9.238;2022-08-18T20:30:23;7.07;;;5.17;;
444;SDS011;209;48.774;9.238;2022-08-18T20:33:16;7.23;;;4.93;;
444;SDS011;209;48.774;9.238;2022-08-18T20:36:15;7.00;;;4.47;;
444;SDS011;209;48.774;9.238;2022-08-18T20:45:27;3.97;;;3.40;;
444;SDS011;209;48.774;9.238;2022-08-18T20:48:20;4.43;;;4.13;;
444;SDS011;209;48.774;9.238;2022-08-18T20:51:09;10.00;;;4.03;;
444;SDS011;209;48.774;9.238;2022-08-18T20:54:02;7.43;;;4.47;;
444;SDS011;209;48.774;9.238;2022-08-18T20:56:51;5.57;;;5.27;;
444;SDS011;209;48.774;9.238;2022-08-18T20:59:42;4.70;;;3.40;;
444;SDS011;209;48.774;9.238;2022-08-18T21:02:35;5.63;;;3.43;;
444;SDS011;209;48.774;9.238;2022-08-18T21:05:26;4.80;;;4.10;;
444;SDS011;209;48.774;9.238;2022-08-18T21:08:23;6.10;;;5.40;;
444;SDS011;209;48.774;9.238;2022-08-18T21:11:19;3.13;;;2.80;;
444;SDS011;209;48.774;9.238;2022-08-18T21:14:07;7.23;;;4.60;;
444;SDS011;209;48.774;9.238;2022-08-18T21:16:57;3.73;;;3.60;;
444;SDS011;209;48.774;9.238;2022-08-18T21:19:46;6.20;;;4.50;;
444;SDS011;209;48.774;9.238;2022-08-18T21:22:34;5.23;;;3.67;;
444;SDS011;209;48.774;9.238;2022-08-18T21:25:22;4.67;;;4.10;;
444;SDS011;209;48.774;9.238;2022-08-18T21:28:09;4.03;;;3.40;;
444;SDS011;209;48.774;9.238;2022-08-18T21:30:59;6.10;;;4.60;;
444;SDS011;209;48.774;9.238;2022-08-18T21:33:47;3.70;;;3.50;;
444;SDS011;209;48.774;9.238;2022-08-18T21:36:37;4.60;;;3.40;;
444;SDS011;209;48.774;9.238;2022-08-18T21:39:34;5.53;;;3.37;;
444;SDS011;209;48.774;9.238;2022-08-18T21:42:23;5.57;;;4.33;;
444;SDS011;209;48.774;9.238;2022-08-18T21:45:12;4.30;;;3.23;;
444;SDS011;209;48.774;9.238;2022-08-18T22:06:47;6.30;;;4.60;;
444;SDS011;209;48.774;9.238;2022-08-18T22:15:04;5.63;;;3.53;;
